createdAt,value
2016-09-15T00:00:59.926Z,1007.09
2016-09-15T00:01:59.910Z,1007.06
2016-09-15T00:02:59.896Z,1007.07
2016-09-15T00:03:59.884Z,1007.05
2016-09-15T00:04:59.870Z,1007.07
2016-09-15T00:05:59.856Z,1007.09
2016-09-15T00:06:59.843Z,1007.05
2016-09-15T00:07:59.828Z,1007.06
2016-09-15T00:08:59.823Z,1007.04
2016-09-15T00:09:59.801Z,1007.05
2016-09-15T00:10:59.789Z,1007.06
2016-09-15T00:11:59.774Z,1007.02
2016-09-15T00:12:59.759Z,1007.01
2016-09-15T00:13:59.747Z,1007.05
2016-09-15T00:14:59.732Z,1006.99
2016-09-15T00:15:59.717Z,1006.99
2016-09-15T00:16:59.705Z,1007
2016-09-15T00:17:59.692Z,1007
2016-09-15T00:18:59.677Z,1007
2016-09-15T00:19:59.668Z,1007
2016-09-15T00:20:59.648Z,1006.99
2016-09-15T00:21:59.636Z,1007.02
2016-09-15T00:22:59.624Z,1007.02
2016-09-15T00:23:59.607Z,1006.97
2016-09-15T00:24:59.596Z,1007
2016-09-15T00:25:59.594Z,1006.97
2016-09-15T00:26:59.566Z,1006.99
2016-09-15T00:27:59.552Z,1006.99
2016-09-15T00:28:59.541Z,1007
2016-09-15T00:29:59.525Z,1007
2016-09-15T00:30:59.513Z,1006.98
2016-09-15T00:31:59.498Z,1006.99
2016-09-15T00:32:59.487Z,1006.96
2016-09-15T00:33:59.471Z,1006.97
2016-09-15T00:34:59.456Z,1006.96
2016-09-15T00:35:59.441Z,1006.92
2016-09-15T00:36:59.433Z,1006.93
2016-09-15T00:37:59.413Z,1006.96
2016-09-15T00:38:59.401Z,1006.93
2016-09-15T00:39:59.385Z,1006.91
2016-09-15T00:40:59.374Z,1006.93
2016-09-15T00:41:59.360Z,1006.89
2016-09-15T00:42:59.349Z,1006.87
2016-09-15T00:43:59.332Z,1006.89
2016-09-15T00:44:59.319Z,1006.86
2016-09-15T00:45:59.304Z,1006.87
2016-09-15T00:46:59.291Z,1006.88
2016-09-15T00:47:59.277Z,1006.83
2016-09-15T00:48:59.266Z,1006.84
2016-09-15T00:49:59.247Z,1006.82
2016-09-15T00:50:59.236Z,1006.8
2016-09-15T00:51:59.223Z,1006.79
2016-09-15T00:52:59.208Z,1006.82
2016-09-15T00:53:59.194Z,1006.77
2016-09-15T00:54:59.180Z,1006.77
2016-09-15T00:55:59.165Z,1006.8
2016-09-15T00:56:59.152Z,1006.76
2016-09-15T00:57:59.138Z,1006.77
2016-09-15T00:58:59.123Z,1006.77
2016-09-15T00:59:59.109Z,1006.75
2016-09-15T01:00:59.096Z,1006.78
2016-09-15T01:01:59.081Z,1006.78
2016-09-15T01:02:59.070Z,1006.75
2016-09-15T01:03:59.055Z,1006.82
2016-09-15T01:04:59.044Z,1006.8
2016-09-15T01:05:59.026Z,1006.81
2016-09-15T01:06:59.014Z,1006.82
2016-09-15T01:07:58.998Z,1006.76
2016-09-15T01:08:58.990Z,1006.78
2016-09-15T01:09:58.970Z,1006.76
2016-09-15T01:10:58.957Z,1006.75
2016-09-15T01:11:58.943Z,1006.76
2016-09-15T01:12:58.931Z,1006.75
2016-09-15T01:13:58.913Z,1006.8
2016-09-15T01:14:58.907Z,1006.73
2016-09-15T01:15:58.891Z,1006.7
2016-09-15T01:16:58.874Z,1006.7
2016-09-15T01:17:58.873Z,1006.66
2016-09-15T01:18:58.844Z,1006.71
2016-09-15T01:19:58.832Z,1006.68
2016-09-15T01:20:58.819Z,1006.68
2016-09-15T01:21:58.807Z,1006.72
2016-09-15T01:22:58.791Z,1006.66
2016-09-15T01:23:58.776Z,1006.71
2016-09-15T01:24:58.762Z,1006.68
2016-09-15T01:25:58.752Z,1006.72
2016-09-15T01:26:58.738Z,1006.67
2016-09-15T01:27:58.721Z,1006.69
2016-09-15T01:28:58.708Z,1006.67
2016-09-15T01:29:58.692Z,1006.69
2016-09-15T01:30:58.679Z,1006.69
2016-09-15T01:31:58.664Z,1006.64
2016-09-15T01:32:58.650Z,1006.66
2016-09-15T01:33:58.637Z,1006.64
2016-09-15T01:34:58.627Z,1006.68
2016-09-15T01:35:58.607Z,1006.66
2016-09-15T01:36:58.593Z,1006.6
2016-09-15T01:37:58.581Z,1006.61
2016-09-15T01:38:58.568Z,1006.63
2016-09-15T01:39:58.555Z,1006.59
2016-09-15T01:40:58.540Z,1006.57
2016-09-15T01:41:58.527Z,1006.56
2016-09-15T01:42:58.512Z,1006.57
2016-09-15T01:43:58.498Z,1006.55
2016-09-15T01:44:58.482Z,1006.57
2016-09-15T01:45:58.466Z,1006.58
2016-09-15T01:46:58.453Z,1006.6
2016-09-15T01:47:58.453Z,1006.55
2016-09-15T01:48:58.428Z,1006.53
2016-09-15T01:49:58.426Z,1006.57
2016-09-15T01:50:58.399Z,1006.51
2016-09-15T01:51:58.388Z,1006.52
2016-09-15T01:52:58.371Z,1006.56
2016-09-15T01:53:58.359Z,1006.53
2016-09-15T01:54:58.348Z,1006.54
2016-09-15T01:55:58.336Z,1006.54
2016-09-15T01:56:58.314Z,1006.52
2016-09-15T01:57:58.301Z,1006.53
2016-09-15T01:58:58.288Z,1006.53
2016-09-15T01:59:58.272Z,1006.53
2016-09-15T02:00:58.260Z,1006.51
2016-09-15T02:01:58.242Z,1006.51
2016-09-15T02:02:58.231Z,1006.51
2016-09-15T02:03:58.216Z,1006.55
2016-09-15T02:04:58.203Z,1006.54
2016-09-15T02:05:58.193Z,1006.55
2016-09-15T02:06:58.181Z,1006.53
2016-09-15T02:07:58.160Z,1006.55
2016-09-15T02:08:58.146Z,1006.54
2016-09-15T02:09:58.134Z,1006.58
2016-09-15T02:10:58.119Z,1006.54
2016-09-15T02:11:58.104Z,1006.56
2016-09-15T02:12:58.090Z,1006.57
2016-09-15T02:13:58.081Z,1006.56
2016-09-15T02:14:58.062Z,1006.55
2016-09-15T02:15:58.049Z,1006.56
2016-09-15T02:16:58.036Z,1006.56
2016-09-15T02:17:58.021Z,1006.55
2016-09-15T02:18:58.005Z,1006.53
2016-09-15T02:19:57.990Z,1006.53
2016-09-15T02:20:57.979Z,1006.52
2016-09-15T02:21:57.964Z,1006.56
2016-09-15T02:22:57.951Z,1006.5
2016-09-15T02:23:57.939Z,1006.55
2016-09-15T02:24:57.922Z,1006.44
2016-09-15T02:25:57.913Z,1006.48
2016-09-15T02:26:57.894Z,1006.5
2016-09-15T02:27:57.883Z,1006.47
2016-09-15T02:28:57.868Z,1006.45
2016-09-15T02:29:57.850Z,1006.47
2016-09-15T02:30:57.837Z,1006.45
2016-09-15T02:31:57.823Z,1006.44
2016-09-15T02:32:57.811Z,1006.45
2016-09-15T02:33:57.795Z,1006.42
2016-09-15T02:34:57.784Z,1006.47
2016-09-15T02:35:57.766Z,1006.43
2016-09-15T02:36:57.757Z,1006.4
2016-09-15T02:37:57.738Z,1006.43
2016-09-15T02:38:57.725Z,1006.4
2016-09-15T02:39:57.711Z,1006.43
2016-09-15T02:40:57.696Z,1006.42
2016-09-15T02:41:57.683Z,1006.42
2016-09-15T02:42:57.673Z,1006.44
2016-09-15T02:43:57.653Z,1006.37
2016-09-15T02:44:57.637Z,1006.42
2016-09-15T02:45:57.625Z,1006.39
2016-09-15T02:46:57.612Z,1006.4
2016-09-15T02:47:57.597Z,1006.38
2016-09-15T02:48:57.585Z,1006.34
2016-09-15T02:49:57.568Z,1006.38
2016-09-15T02:50:57.559Z,1006.4
2016-09-15T02:51:57.536Z,1006.36
2016-09-15T02:52:57.526Z,1006.39
2016-09-15T02:53:57.510Z,1006.35
2016-09-15T02:54:57.500Z,1006.39
2016-09-15T02:55:57.482Z,1006.37
2016-09-15T02:56:57.469Z,1006.33
2016-09-15T02:57:57.457Z,1006.34
2016-09-15T02:58:57.441Z,1006.38
2016-09-15T02:59:57.431Z,1006.39
2016-09-15T03:00:57.414Z,1006.36
2016-09-15T03:01:57.403Z,1006.35
2016-09-15T03:02:57.386Z,1006.36
2016-09-15T03:03:57.378Z,1006.3
2016-09-15T03:04:57.358Z,1006.32
2016-09-15T03:05:57.344Z,1006.31
2016-09-15T03:06:57.329Z,1006.32
2016-09-15T03:07:57.316Z,1006.35
2016-09-15T03:08:57.301Z,1006.35
2016-09-15T03:09:57.284Z,1006.31
2016-09-15T03:10:57.272Z,1006.29
2016-09-15T03:11:57.260Z,1006.33
2016-09-15T03:12:57.250Z,1006.29
2016-09-15T03:13:57.230Z,1006.26
2016-09-15T03:14:57.214Z,1006.23
2016-09-15T03:15:57.202Z,1006.23
2016-09-15T03:16:57.189Z,1006.22
2016-09-15T03:17:57.173Z,1006.21
2016-09-15T03:18:57.162Z,1006.19
2016-09-15T03:19:57.145Z,1006.2
2016-09-15T03:20:57.128Z,1006.18
2016-09-15T03:21:57.115Z,1006.21
2016-09-15T03:22:57.110Z,1006.17
2016-09-15T03:23:57.088Z,1006.2
2016-09-15T03:24:57.071Z,1006.23
2016-09-15T03:25:57.060Z,1006.24
2016-09-15T03:26:57.046Z,1006.17
2016-09-15T03:27:57.031Z,1006.17
2016-09-15T03:28:57.020Z,1006.17
2016-09-15T03:29:57.002Z,1006.16
2016-09-15T03:30:56.988Z,1006.15
2016-09-15T03:31:56.974Z,1006.13
2016-09-15T03:32:56.959Z,1006.11
2016-09-15T03:33:56.947Z,1006.09
2016-09-15T03:34:56.942Z,1006.07
2016-09-15T03:35:56.923Z,1006.08
2016-09-15T03:36:56.906Z,1006.12
2016-09-15T03:37:56.893Z,1006.07
2016-09-15T03:38:56.875Z,1006.03
2016-09-15T03:39:56.866Z,1006.04
2016-09-15T03:40:56.848Z,1006.02
2016-09-15T03:41:56.834Z,1006
2016-09-15T03:42:56.821Z,1006.05
2016-09-15T03:43:56.806Z,1005.98
2016-09-15T03:44:56.788Z,1005.99
2016-09-15T03:45:56.777Z,1005.98
2016-09-15T03:46:56.759Z,1006
2016-09-15T03:47:56.748Z,1005.99
2016-09-15T03:48:56.740Z,1005.98
2016-09-15T03:49:56.718Z,1005.99
2016-09-15T03:50:56.703Z,1005.99
2016-09-15T03:51:56.691Z,1005.98
2016-09-15T03:52:56.678Z,1005.97
2016-09-15T03:53:56.662Z,1006.01
2016-09-15T03:54:56.650Z,1006.02
2016-09-15T03:55:56.634Z,1006.04
2016-09-15T03:56:56.621Z,1006.06
2016-09-15T03:57:56.605Z,1006.08
2016-09-15T03:58:56.591Z,1006.07
2016-09-15T03:59:56.575Z,1006.04
2016-09-15T04:00:56.562Z,1006.07
2016-09-15T04:01:56.549Z,1006.08
2016-09-15T04:02:56.539Z,1006.1
2016-09-15T04:03:56.520Z,1006.08
2016-09-15T04:04:56.507Z,1006.06
2016-09-15T04:05:56.491Z,1006.09
2016-09-15T04:06:56.475Z,1006.06
2016-09-15T04:07:56.467Z,1006.06
2016-09-15T04:08:56.448Z,1006.11
2016-09-15T04:09:56.435Z,1006.04
2016-09-15T04:10:56.420Z,1006.06
2016-09-15T04:11:56.404Z,1006.09
2016-09-15T04:12:56.390Z,1006.05
2016-09-15T04:13:56.377Z,1006.08
2016-09-15T04:14:56.361Z,1006.05
2016-09-15T04:15:56.348Z,1006.05
2016-09-15T04:16:56.335Z,1006.05
2016-09-15T04:17:56.326Z,1006.02
2016-09-15T04:18:56.304Z,1006.02
2016-09-15T04:19:56.291Z,1006
2016-09-15T04:20:56.277Z,1006.03
2016-09-15T04:21:56.263Z,1005.99
2016-09-15T04:22:56.248Z,1006.01
2016-09-15T04:23:56.236Z,1006.03
2016-09-15T04:24:56.220Z,1006.04
2016-09-15T04:25:56.204Z,1006.02
2016-09-15T04:26:56.193Z,1006.04
2016-09-15T04:27:56.176Z,1006.03
2016-09-15T04:28:56.163Z,1006
2016-09-15T04:29:56.148Z,1006.02
2016-09-15T04:30:56.133Z,1006.03
2016-09-15T04:31:56.126Z,1006.04
2016-09-15T04:32:56.103Z,1006.08
2016-09-15T04:33:56.089Z,1006
2016-09-15T04:34:56.076Z,1006.01
2016-09-15T04:35:56.063Z,1006.02
2016-09-15T04:36:56.050Z,1006.03
2016-09-15T04:37:56.035Z,1006.02
2016-09-15T04:38:56.020Z,1006.02
2016-09-15T04:39:56.007Z,1006.02
2016-09-15T04:40:55.991Z,1005.99
2016-09-15T04:41:55.978Z,1006.03
2016-09-15T04:42:55.962Z,1006.01
2016-09-15T04:43:55.947Z,1006
2016-09-15T04:44:55.935Z,1005.99
2016-09-15T04:45:55.918Z,1005.96
2016-09-15T04:46:55.906Z,1005.99
2016-09-15T04:47:55.892Z,1006.07
2016-09-15T04:48:55.876Z,1006.04
2016-09-15T04:49:55.862Z,1006.05
2016-09-15T04:50:55.847Z,1006.05
2016-09-15T04:51:55.834Z,1006.03
2016-09-15T04:52:55.820Z,1006.06
2016-09-15T04:53:55.803Z,1006.03
2016-09-15T04:54:55.792Z,1006.01
2016-09-15T04:55:55.777Z,1006.03
2016-09-15T04:56:55.764Z,1006.01
2016-09-15T04:57:55.759Z,1006.05
2016-09-15T04:58:55.735Z,1006.05
2016-09-15T04:59:55.723Z,1006.05
2016-09-15T05:00:55.705Z,1006.02
2016-09-15T05:01:55.694Z,1006.01
2016-09-15T05:02:55.675Z,1006.04
2016-09-15T05:03:55.663Z,1006.06
2016-09-15T05:04:55.648Z,1006.04
2016-09-15T05:05:55.636Z,1006.02
2016-09-15T05:06:55.615Z,1006.03
2016-09-15T05:07:55.608Z,1006.05
2016-09-15T05:08:55.589Z,1006.08
2016-09-15T05:09:55.577Z,1006.06
2016-09-15T05:10:55.561Z,1006.06
2016-09-15T05:11:55.550Z,1006.08
2016-09-15T05:12:55.532Z,1006.05
2016-09-15T05:13:55.518Z,1006.1
2016-09-15T05:14:55.514Z,1006.08
2016-09-15T05:15:55.491Z,1006.09
2016-09-15T05:16:55.477Z,1006.04
2016-09-15T05:17:55.462Z,1006.07
2016-09-15T05:18:55.449Z,1006.07
2016-09-15T05:19:55.439Z,1006.08
2016-09-15T05:20:55.420Z,1006.04
2016-09-15T05:21:55.404Z,1006.11
2016-09-15T05:22:55.391Z,1006.09
2016-09-15T05:23:55.376Z,1006.14
2016-09-15T05:24:55.368Z,1006.13
2016-09-15T05:25:55.346Z,1006.15
2016-09-15T05:26:55.336Z,1006.14
2016-09-15T05:27:55.319Z,1006.14
2016-09-15T05:28:55.304Z,1006.1
2016-09-15T05:29:55.294Z,1006.15
2016-09-15T05:30:55.274Z,1006.15
2016-09-15T05:31:55.263Z,1006.16
2016-09-15T05:32:55.250Z,1006.18
2016-09-15T05:33:55.233Z,1006.19
2016-09-15T05:34:55.219Z,1006.2
2016-09-15T05:35:55.204Z,1006.16
2016-09-15T05:36:55.190Z,1006.2
2016-09-15T05:37:55.173Z,1006.19
2016-09-15T05:38:55.160Z,1006.22
2016-09-15T05:39:55.145Z,1006.22
2016-09-15T05:40:55.134Z,1006.18
2016-09-15T05:41:55.116Z,1006.22
2016-09-15T05:42:55.103Z,1006.24
2016-09-15T05:43:55.089Z,1006.19
2016-09-15T05:44:55.073Z,1006.18
2016-09-15T05:45:55.060Z,1006.23
2016-09-15T05:46:55.045Z,1006.24
2016-09-15T05:47:55.030Z,1006.23
2016-09-15T05:48:55.015Z,1006.23
2016-09-15T05:49:54.999Z,1006.26
2016-09-15T05:50:54.986Z,1006.28
2016-09-15T05:51:54.973Z,1006.27
2016-09-15T05:52:54.959Z,1006.29
2016-09-15T05:53:54.944Z,1006.29
2016-09-15T05:54:54.928Z,1006.29
2016-09-15T05:55:54.915Z,1006.33
2016-09-15T05:56:54.899Z,1006.34
2016-09-15T05:57:54.885Z,1006.33
2016-09-15T05:58:54.871Z,1006.35
2016-09-15T05:59:54.861Z,1006.33
2016-09-15T06:00:54.844Z,1006.34
2016-09-15T06:01:54.833Z,1006.33
2016-09-15T06:02:54.811Z,1006.38
2016-09-15T06:03:54.803Z,1006.32
2016-09-15T06:04:54.785Z,1006.29
2016-09-15T06:05:54.771Z,1006.3
2016-09-15T06:06:54.757Z,1006.25
2016-09-15T06:07:54.745Z,1006.25
2016-09-15T06:08:54.727Z,1006.25
2016-09-15T06:09:54.713Z,1006.27
2016-09-15T06:10:54.698Z,1006.28
2016-09-15T06:11:54.680Z,1006.22
2016-09-15T06:12:54.669Z,1006.29
2016-09-15T06:13:54.658Z,1006.29
2016-09-15T06:14:54.641Z,1006.3
2016-09-15T06:15:54.626Z,1006.32
2016-09-15T06:16:54.612Z,1006.28
2016-09-15T06:17:54.595Z,1006.34
2016-09-15T06:18:54.584Z,1006.35
2016-09-15T06:19:54.567Z,1006.34
2016-09-15T06:20:54.560Z,1006.31
2016-09-15T06:21:54.537Z,1006.37
2016-09-15T06:22:54.531Z,1006.33
2016-09-15T06:23:54.512Z,1006.35
2016-09-15T06:24:54.495Z,1006.35
2016-09-15T06:25:54.489Z,1006.31
2016-09-15T06:26:54.466Z,1006.34
2016-09-15T06:27:54.453Z,1006.33
2016-09-15T06:28:54.447Z,1006.35
2016-09-15T06:29:54.427Z,1006.35
2016-09-15T06:30:54.414Z,1006.3
2016-09-15T06:31:54.397Z,1006.36
2016-09-15T06:32:54.389Z,1006.34
2016-09-15T06:33:54.370Z,1006.31
2016-09-15T06:34:54.350Z,1006.33
2016-09-15T06:35:54.339Z,1006.27
2016-09-15T06:36:54.326Z,1006.26
2016-09-15T06:37:54.307Z,1006.27
2016-09-15T06:38:54.296Z,1006.23
2016-09-15T06:39:54.282Z,1006.23
2016-09-15T06:40:54.267Z,1006.23
2016-09-15T06:41:54.250Z,1006.26
2016-09-15T06:42:54.235Z,1006.22
2016-09-15T06:43:54.225Z,1006.22
2016-09-15T06:44:54.214Z,1006.25
2016-09-15T06:45:54.195Z,1006.25
2016-09-15T06:46:54.179Z,1006.23
2016-09-15T06:47:54.166Z,1006.27
2016-09-15T06:48:54.152Z,1006.28
2016-09-15T06:49:54.140Z,1006.28
2016-09-15T06:50:54.124Z,1006.27
2016-09-15T06:51:54.113Z,1006.27
2016-09-15T06:52:54.097Z,1006.3
2016-09-15T06:53:54.083Z,1006.29
2016-09-15T06:54:54.066Z,1006.25
2016-09-15T06:55:54.053Z,1006.29
2016-09-15T06:56:54.039Z,1006.24
2016-09-15T06:57:54.023Z,1006.25
2016-09-15T06:58:54.010Z,1006.26
2016-09-15T06:59:53.999Z,1006.23
2016-09-15T07:00:53.978Z,1006.26
2016-09-15T07:01:53.965Z,1006.24
2016-09-15T07:02:53.953Z,1006.25
2016-09-15T07:03:53.934Z,1006.25
2016-09-15T07:04:53.924Z,1006.21
2016-09-15T07:05:53.909Z,1006.21
2016-09-15T07:06:53.896Z,1006.2
2016-09-15T07:07:53.884Z,1006.23
2016-09-15T07:08:53.867Z,1006.27
2016-09-15T07:09:53.852Z,1006.26
2016-09-15T07:10:53.837Z,1006.24
2016-09-15T07:11:53.822Z,1006.25
2016-09-15T07:12:53.812Z,1006.28
2016-09-15T07:13:53.792Z,1006.29
2016-09-15T07:14:53.779Z,1006.32
2016-09-15T07:15:53.766Z,1006.32
2016-09-15T07:16:53.753Z,1006.31
2016-09-15T07:17:53.736Z,1006.29
2016-09-15T07:18:53.724Z,1006.29
2016-09-15T07:19:53.709Z,1006.27
2016-09-15T07:20:53.695Z,1006.28
2016-09-15T07:21:53.685Z,1006.29
2016-09-15T07:22:53.669Z,1006.3
2016-09-15T07:23:53.652Z,1006.22
2016-09-15T07:24:53.639Z,1006.25
2016-09-15T07:25:53.623Z,1006.29
2016-09-15T07:26:53.612Z,1006.23
2016-09-15T07:27:53.593Z,1006.24
2016-09-15T07:28:53.581Z,1006.28
2016-09-15T07:29:53.570Z,1006.22
2016-09-15T07:30:53.555Z,1006.23
2016-09-15T07:31:53.538Z,1006.2
2016-09-15T07:32:53.523Z,1006.22
2016-09-15T07:33:53.514Z,1006.25
2016-09-15T07:34:53.497Z,1006.21
2016-09-15T07:35:53.483Z,1006.21
2016-09-15T07:36:53.474Z,1006.24
2016-09-15T07:37:53.456Z,1006.21
2016-09-15T07:38:53.440Z,1006.23
2016-09-15T07:39:53.425Z,1006.22
2016-09-15T07:40:53.411Z,1006.23
2016-09-15T07:41:53.398Z,1006.22
2016-09-15T07:42:53.390Z,1006.23
2016-09-15T07:43:53.370Z,1006.17
2016-09-15T07:44:53.355Z,1006.21
2016-09-15T07:45:53.339Z,1006.23
2016-09-15T07:46:53.329Z,1006.24
2016-09-15T07:47:53.312Z,1006.2
2016-09-15T07:48:53.296Z,1006.2
2016-09-15T07:49:53.285Z,1006.23
2016-09-15T07:50:53.268Z,1006.28
2016-09-15T07:51:53.251Z,1006.29
2016-09-15T07:52:53.241Z,1006.27
2016-09-15T07:53:53.230Z,1006.3
2016-09-15T07:54:53.213Z,1006.29
2016-09-15T07:55:53.202Z,1006.25
2016-09-15T07:56:53.187Z,1006.28
2016-09-15T07:57:53.169Z,1006.26
2016-09-15T07:58:53.159Z,1006.25
2016-09-15T07:59:53.142Z,1006.25
2016-09-15T08:00:53.132Z,1006.25
2016-09-15T08:01:53.117Z,1006.3
2016-09-15T08:02:53.105Z,1006.31
2016-09-15T08:03:53.090Z,1006.31
2016-09-15T08:04:53.072Z,1006.36
2016-09-15T08:05:53.062Z,1006.3
2016-09-15T08:06:53.045Z,1006.35
2016-09-15T08:07:53.031Z,1006.36
2016-09-15T08:08:53.016Z,1006.35
2016-09-15T08:09:53.008Z,1006.45
2016-09-15T08:10:52.990Z,1006.42
2016-09-15T08:11:52.975Z,1006.4
2016-09-15T08:12:52.962Z,1006.39
2016-09-15T08:13:52.947Z,1006.44
2016-09-15T08:14:52.933Z,1006.42
2016-09-15T08:15:52.918Z,1006.39
2016-09-15T08:16:52.905Z,1006.33
2016-09-15T08:17:52.896Z,1006.35
2016-09-15T08:18:52.876Z,1006.32
2016-09-15T08:19:52.862Z,1006.33
2016-09-15T08:20:52.849Z,1006.32
2016-09-15T08:21:52.837Z,1006.38
2016-09-15T08:22:52.828Z,1006.35
2016-09-15T08:23:52.807Z,1006.34
2016-09-15T08:24:52.792Z,1006.34
2016-09-15T08:25:52.795Z,1006.32
2016-09-15T08:26:52.769Z,1006.4
2016-09-15T08:27:52.756Z,1006.35
2016-09-15T08:28:52.737Z,1006.37
2016-09-15T08:29:52.728Z,1006.4
2016-09-15T08:30:52.710Z,1006.35
2016-09-15T08:31:52.694Z,1006.4
2016-09-15T08:32:52.682Z,1006.34
2016-09-15T08:33:52.667Z,1006.39
2016-09-15T08:34:52.651Z,1006.32
2016-09-15T08:35:52.643Z,1006.35
2016-09-15T08:36:52.627Z,1006.44
2016-09-15T08:37:52.614Z,1006.4
2016-09-15T08:38:52.599Z,1006.32
2016-09-15T08:39:52.584Z,1006.32
2016-09-15T08:40:52.571Z,1006.34
2016-09-15T08:41:52.560Z,1006.31
2016-09-15T08:42:52.546Z,1006.35
2016-09-15T08:43:52.532Z,1006.34
2016-09-15T08:44:52.516Z,1006.39
2016-09-15T08:45:52.499Z,1006.33
2016-09-15T08:46:52.486Z,1006.39
2016-09-15T08:47:52.474Z,1006.43
2016-09-15T08:48:52.460Z,1006.39
2016-09-15T08:49:52.446Z,1006.39
2016-09-15T08:50:52.433Z,1006.34
2016-09-15T08:51:52.419Z,1006.37
2016-09-15T08:52:52.405Z,1006.39
2016-09-15T08:53:52.390Z,1006.37
2016-09-15T08:54:52.377Z,1006.37
2016-09-15T08:55:52.367Z,1006.51
2016-09-15T08:56:52.358Z,1006.31
2016-09-15T08:57:52.333Z,1006.39
2016-09-15T08:58:52.324Z,1006.29
2016-09-15T08:59:52.308Z,1006.27
2016-09-15T09:00:52.292Z,1006.29
2016-09-15T09:01:52.278Z,1006.27
2016-09-15T09:02:52.267Z,1006.32
2016-09-15T09:03:52.252Z,1006.3
2016-09-15T09:04:52.237Z,1006.26
2016-09-15T09:05:52.232Z,1006.25
2016-09-15T09:06:52.211Z,1006.29
2016-09-15T09:07:52.198Z,1006.21
2016-09-15T09:08:52.183Z,1006.25
2016-09-15T09:09:52.169Z,1006.25
2016-09-15T09:10:52.152Z,1006.21
2016-09-15T09:11:52.143Z,1006.23
2016-09-15T09:12:52.126Z,1006.17
2016-09-15T09:13:52.110Z,1006.22
2016-09-15T09:14:52.101Z,1006.2
2016-09-15T09:15:52.090Z,1006.27
2016-09-15T09:16:52.067Z,1006.19
2016-09-15T09:17:52.058Z,1006.18
2016-09-15T09:18:52.044Z,1006.18
2016-09-15T09:19:52.029Z,1006.2
2016-09-15T09:20:52.016Z,1006.24
2016-09-15T09:21:52.003Z,1006.26
2016-09-15T09:22:51.985Z,1006.25
2016-09-15T09:23:51.971Z,1006.22
2016-09-15T09:24:51.964Z,1006.23
2016-09-15T09:25:51.946Z,1006.16
2016-09-15T09:26:51.933Z,1006.29
2016-09-15T09:27:51.918Z,1006.24
2016-09-15T09:28:51.906Z,1006.29
2016-09-15T09:29:51.889Z,1006.17
2016-09-15T09:30:51.874Z,1006.2
2016-09-15T09:31:51.862Z,1006.17
2016-09-15T09:32:51.848Z,1006.12
2016-09-15T09:33:51.835Z,1006.13
2016-09-15T09:34:51.821Z,1006.13
2016-09-15T09:35:51.806Z,1006.11
2016-09-15T09:36:51.793Z,1006.1
2016-09-15T09:37:51.784Z,1006.11
2016-09-15T09:38:51.763Z,1006.11
2016-09-15T09:39:51.755Z,1006.04
2016-09-15T09:40:51.736Z,1006.09
2016-09-15T09:41:51.723Z,1006.05
2016-09-15T09:42:51.712Z,1006.05
2016-09-15T09:43:51.696Z,1006.03
2016-09-15T09:44:51.679Z,1006.04
2016-09-15T09:45:51.668Z,1006.01
2016-09-15T09:46:51.656Z,1006.05
2016-09-15T09:47:51.640Z,1005.98
2016-09-15T09:48:51.626Z,1005.98
2016-09-15T09:49:51.612Z,1006.01
2016-09-15T09:50:51.601Z,1005.96
2016-09-15T09:51:51.583Z,1005.97
2016-09-15T09:52:51.569Z,1006
2016-09-15T09:53:51.566Z,1006.02
2016-09-15T09:54:51.542Z,1005.91
2016-09-15T09:55:51.530Z,1005.9
2016-09-15T09:56:51.515Z,1005.96
2016-09-15T09:57:51.502Z,1005.94
2016-09-15T09:58:51.488Z,1005.9
2016-09-15T09:59:51.475Z,1005.85
2016-09-15T10:00:51.459Z,1005.92
2016-09-15T10:01:51.447Z,1005.85
2016-09-15T10:02:51.433Z,1005.9
2016-09-15T10:03:51.425Z,1005.88
2016-09-15T10:04:51.403Z,1005.94
2016-09-15T10:05:51.392Z,1005.91
2016-09-15T10:06:51.377Z,1005.88
2016-09-15T10:07:51.363Z,1005.92
2016-09-15T10:08:51.350Z,1005.91
2016-09-15T10:09:51.334Z,1005.85
2016-09-15T10:10:51.322Z,1005.85
2016-09-15T10:11:51.307Z,1005.86
2016-09-15T10:12:51.294Z,1005.86
2016-09-15T10:13:51.279Z,1005.85
2016-09-15T10:14:51.264Z,1005.83
2016-09-15T10:15:51.251Z,1005.82
2016-09-15T10:16:51.239Z,1005.82
2016-09-15T10:17:51.223Z,1005.83
2016-09-15T10:18:51.210Z,1005.82
2016-09-15T10:19:51.201Z,1005.83
2016-09-15T10:20:51.188Z,1005.85
2016-09-15T10:21:51.168Z,1005.79
2016-09-15T10:22:51.157Z,1005.8
2016-09-15T10:23:51.142Z,1005.79
2016-09-15T10:24:51.124Z,1005.79
2016-09-15T10:25:51.111Z,1005.81
2016-09-15T10:26:51.100Z,1005.76
2016-09-15T10:27:51.087Z,1005.77
2016-09-15T10:28:51.071Z,1005.75
2016-09-15T10:29:51.063Z,1005.79
2016-09-15T10:30:51.045Z,1005.76
2016-09-15T10:31:51.029Z,1005.77
2016-09-15T10:32:51.015Z,1005.74
2016-09-15T10:33:51.005Z,1005.74
2016-09-15T10:34:50.990Z,1005.76
2016-09-15T10:35:50.976Z,1005.7
2016-09-15T10:36:50.962Z,1005.76
2016-09-15T10:37:50.951Z,1005.69
2016-09-15T10:38:50.934Z,1005.67
2016-09-15T10:39:50.919Z,1005.69
2016-09-15T10:40:50.909Z,1005.64
2016-09-15T10:41:50.895Z,1005.64
2016-09-15T10:42:50.878Z,1005.71
2016-09-15T10:43:50.864Z,1005.69
2016-09-15T10:44:50.851Z,1005.65
2016-09-15T10:45:50.839Z,1005.66
2016-09-15T10:46:50.824Z,1005.69
2016-09-15T10:47:50.810Z,1005.72
2016-09-15T10:48:50.801Z,1005.62
2016-09-15T10:49:50.784Z,1005.68
2016-09-15T10:50:50.769Z,1005.62
2016-09-15T10:51:50.755Z,1005.64
2016-09-15T10:52:50.742Z,1005.56
2016-09-15T10:53:50.726Z,1005.58
2016-09-15T10:54:50.714Z,1005.58
2016-09-15T10:55:50.700Z,1005.52
2016-09-15T10:56:50.687Z,1005.52
2016-09-15T10:57:50.671Z,1005.58
2016-09-15T10:58:50.661Z,1005.57
2016-09-15T10:59:50.648Z,1005.55
2016-09-15T11:00:50.630Z,1005.59
2016-09-15T11:01:50.621Z,1005.57
2016-09-15T11:02:50.603Z,1005.52
2016-09-15T11:03:50.589Z,1005.51
2016-09-15T11:04:50.575Z,1005.47
2016-09-15T11:05:50.562Z,1005.54
2016-09-15T11:06:50.548Z,1005.55
2016-09-15T11:07:50.534Z,1005.5
2016-09-15T11:08:50.520Z,1005.5
2016-09-15T11:09:50.506Z,1005.52
2016-09-15T11:10:50.493Z,1005.52
2016-09-15T11:11:50.480Z,1005.53
2016-09-15T11:12:50.469Z,1005.5
2016-09-15T11:13:50.453Z,1005.45
2016-09-15T11:14:50.439Z,1005.45
2016-09-15T11:15:50.425Z,1005.4
2016-09-15T11:16:50.412Z,1005.38
2016-09-15T11:17:50.396Z,1005.39
2016-09-15T11:18:50.384Z,1005.32
2016-09-15T11:19:50.371Z,1005.34
2016-09-15T11:20:50.358Z,1005.37
2016-09-15T11:21:50.345Z,1005.35
2016-09-15T11:22:50.329Z,1005.39
2016-09-15T11:23:50.321Z,1005.44
2016-09-15T11:24:50.303Z,1005.38
2016-09-15T11:25:50.288Z,1005.33
2016-09-15T11:26:50.277Z,1005.36
2016-09-15T11:27:50.263Z,1005.32
2016-09-15T11:28:50.250Z,1005.34
2016-09-15T11:29:50.236Z,1005.35
2016-09-15T11:30:50.220Z,1005.32
2016-09-15T11:31:50.206Z,1005.3
2016-09-15T11:32:50.194Z,1005.32
2016-09-15T11:33:50.180Z,1005.35
2016-09-15T11:34:50.166Z,1005.34
2016-09-15T11:35:50.153Z,1005.35
2016-09-15T11:36:50.139Z,1005.38
2016-09-15T11:37:50.124Z,1005.43
2016-09-15T11:38:50.114Z,1005.36
2016-09-15T11:39:50.099Z,1005.38
2016-09-15T11:40:50.085Z,1005.34
2016-09-15T11:41:50.070Z,1005.37
2016-09-15T11:42:50.057Z,1005.38
2016-09-15T11:43:50.047Z,1005.42
2016-09-15T11:44:50.028Z,1005.38
2016-09-15T11:45:50.015Z,1005.37
2016-09-15T11:46:50.002Z,1005.34
2016-09-15T11:47:49.993Z,1005.33
2016-09-15T11:48:49.975Z,1005.29
2016-09-15T11:49:49.963Z,1005.26
2016-09-15T11:50:49.948Z,1005.24
2016-09-15T11:51:49.985Z,1005.26
2016-09-15T11:52:49.919Z,1005.31
2016-09-15T11:53:49.910Z,1005.27
2016-09-15T11:54:49.895Z,1005.25
2016-09-15T11:55:49.880Z,1005.28
2016-09-15T11:56:49.868Z,1005.23
2016-09-15T11:57:49.852Z,1005.24
2016-09-15T11:58:49.834Z,1005.25
2016-09-15T11:59:49.826Z,1005.22
2016-09-15T12:00:49.811Z,1005.21
2016-09-15T12:01:49.796Z,1005.16
2016-09-15T12:02:49.784Z,1005.23
2016-09-15T12:03:49.767Z,1005.18
2016-09-15T12:04:49.754Z,1005.19
2016-09-15T12:05:49.744Z,1005.08
2016-09-15T12:06:49.728Z,1005.15
2016-09-15T12:07:49.716Z,1005.05
2016-09-15T12:08:49.701Z,1004.98